Time;durP1;ratioP1;P1;durP2;ratioP2;P2;SDS_P1;SDS_P2;PMS_P1;PMS_P2;Temp;Humidity;BMP_temperature;BMP_pressure;BME280_temperature;BME280_humidity;BME280_pressure;Samples;Min_cycle;Max_cycle;Signal;HPM_P1;HPM_P2
2023/04/21 00:02:02;;;;;;;5.60;5.00;;;5.00;99.90;;;;;;5028718;28;20192;-60
2023/04/21 00:04:27;;;;;;;6.60;4.93;;;5.00;99.90;;;;;;5027531;28;20191;-59
2023/04/21 00:06:54;;;;;;;6.00;4.97;;;5.00;99.90;;;;;;5017129;28;20279;-59
2023/04/21 00:09:20;;;;;;;5.43;4.30;;;5.00;99.90;;;;;;5012110;28;20556;-59
2023/04/21 00:11:46;;;;;;;8.20;5.53;;;4.90;99.90;;;;;;5017224;28;20465;-59
2023/04/21 00:14:12;;;;;;;6.83;5.00;;;4.90;99.90;;;;;;5017419;28;20427;-59
2023/04/21 00:16:37;;;;;;;6.90;4.83;;;4.90;99.90;;;;;;5020413;28;20337;-59
2023/04/21 00:19:05;;;;;;;5.80;4.50;;;4.80;99.90;;;;;;5016778;28;20261;-60
2023/04/21 00:21:32;;;;;;;6.17;5.00;;;4.80;99.90;;;;;;5012642;28;20210;-60
2023/04/21 00:23:58;;;;;;;6.17;5.43;;;4.80;99.90;;;;;;5015674;28;20436;-59
2023/04/21 00:26:24;;;;;;;6.70;5.20;;;4.70;99.90;;;;;;5015683;28;20438;-61
2023/04/21 00:28:49;;;;;;;8.20;5.43;;;4.70;99.90;;;;;;5027597;28;20209;-59
2023/04/21 00:31:15;;;;;;;7.50;4.93;;;4.70;99.90;;;;;;5026130;28;20191;-60
2023/04/21 00:33:41;;;;;;;7.93;4.77;;;4.70;99.90;;;;;;5026234;28;20826;-59
2023/04/21 00:36:06;;;;;;;6.30;5.50;;;4.70;99.90;;;;;;5010594;28;20634;-59
2023/04/21 00:38:32;;;;;;;8.90;6.30;;;4.70;99.90;;;;;;5024161;28;20175;-59
2023/04/21 00:40:58;;;;;;;9.43;6.00;;;4.60;99.90;;;;;;5019887;28;20212;-60
2023/04/21 00:43:26;;;;;;;5.67;4.90;;;4.60;99.90;;;;;;5018761;28;20188;-60
2023/04/21 00:45:52;;;;;;;9.23;5.53;;;4.60;99.90;;;;;;5015814;28;20219;-61
2023/04/21 00:48:18;;;;;;;6.53;4.67;;;4.60;99.90;;;;;;5015566;28;20943;-61
2023/04/21 00:50:44;;;;;;;13.07;7.60;;;4.60;99.90;;;;;;5017349;28;20235;-59
2023/04/21 00:53:12;;;;;;;14.60;7.70;;;4.60;99.90;;;;;;5014133;28;20170;-60
2023/04/21 00:55:38;;;;;;;9.00;6.03;;;4.60;99.90;;;;;;5016179;28;20426;-61
2023/04/21 00:58:04;;;;;;;11.40;5.13;;;4.60;99.90;;;;;;5017741;28;20429;-59
2023/04/21 01:00:30;;;;;;;8.00;4.57;;;4.60;99.90;;;;;;4995043;28;20214;-60
2023/04/21 01:02:56;;;;;;;7.27;5.20;;;4.50;99.90;;;;;;5018052;28;20434;-60
2023/04/21 01:05:22;;;;;;;11.27;5.10;;;4.50;99.90;;;;;;5015643;28;20337;-59
2023/04/21 01:07:49;;;;;;;8.00;5.10;;;4.50;99.90;;;;;;4998346;28;20518;-60
2023/04/21 01:10:14;;;;;;;6.63;5.00;;;4.50;99.90;;;;;;5020710;28;20211;-59
2023/04/21 01:12:44;;;;;;;11.83;7.00;;;4.50;99.90;;;;;;5016039;28;20457;-59
2023/04/21 01:15:14;;;;;;;12.47;7.67;;;4.50;99.90;;;;;;5026244;28;20591;-59
2023/04/21 01:17:40;;;;;;;13.63;7.80;;;4.50;99.90;;;;;;5020154;28;20846;-59
2023/04/21 01:20:15;;;;;;;11.37;7.67;;;4.50;99.90;;;;;;5023343;28;20460;-57
2023/04/21 01:22:43;;;;;;;10.37;6.90;;;4.50;99.90;;;;;;5016353;28;20440;-59
2023/04/21 01:25:09;;;;;;;10.20;6.80;;;4.50;99.90;;;;;;5005093;28;20993;-60
2023/04/21 01:27:35;;;;;;;12.13;7.37;;;4.50;99.90;;;;;;5021178;28;20434;-59
2023/04/21 01:30:00;;;;;;;11.40;6.57;;;4.50;99.90;;;;;;5019862;28;20533;-59
2023/04/21 01:32:28;;;;;;;9.47;6.50;;;4.50;99.90;;;;;;5019028;28;20226;-60
2023/04/21 01:34:55;;;;;;;10.93;6.43;;;4.50;99.90;;;;;;5024450;28;20224;-60
2023/04/21 01:37:25;;;;;;;13.13;6.63;;;4.50;99.90;;;;;;5012243;28;20434;-60
2023/04/21 01:39:53;;;;;;;9.80;6.20;;;4.50;99.90;;;;;;5032934;28;20491;-59
2023/04/21 01:42:21;;;;;;;7.43;5.83;;;4.50;99.90;;;;;;5025007;28;20864;-59
2023/04/21 01:44:48;;;;;;;8.90;5.90;;;4.50;99.90;;;;;;5029774;28;20945;-59
2023/04/21 01:47:14;;;;;;;15.83;7.10;;;4.50;99.90;;;;;;5032251;28;21052;-59
2023/04/21 01:49:40;;;;;;;9.10;6.53;;;4.50;99.90;;;;;;5013342;28;20482;-59
2023/04/21 01:52:06;;;;;;;12.37;7.20;;;4.40;99.90;;;;;;5010358;28;20490;-60
2023/04/21 01:54:32;;;;;;;12.83;7.20;;;4.40;99.90;;;;;;5029300;28;20198;-59
2023/04/21 01:56:57;;;;;;;14.40;6.40;;;4.40;99.90;;;;;;5031407;28;20184;-59
2023/04/21 01:59:23;;;;;;;12.50;6.97;;;4.40;99.90;;;;;;5030444;28;20187;-59
2023/04/21 02:01:49;;;;;;;17.83;7.77;;;4.40;99.90;;;;;;5016552;28;20383;-61
2023/04/21 02:04:15;;;;;;;12.30;7.00;;;4.40;99.90;;;;;;5026569;28;20472;-60
2023/04/21 02:06:40;;;;;;;16.27;7.97;;;4.40;99.90;;;;;;5028308;28;20220;-60
2023/04/21 02:09:06;;;;;;;18.33;9.83;;;4.40;99.90;;;;;;5028756;28;20183;-60
2023/04/21 02:11:32;;;;;;;13.73;7.67;;;4.40;99.90;;;;;;5032500;28;20712;-60
2023/04/21 02:13:57;;;;;;;14.43;7.43;;;4.30;99.90;;;;;;5030209;28;20175;-59
2023/04/21 02:16:26;;;;;;;13.30;7.33;;;4.30;99.90;;;;;;5012204;28;20178;-60
2023/04/21 02:18:52;;;;;;;13.10;6.63;;;4.30;99.90;;;;;;5026498;28;20190;-61
2023/04/21 02:21:20;;;;;;;13.20;7.23;;;4.20;99.90;;;;;;5029013;28;20612;-59
2023/04/21 02:23:45;;;;;;;21.57;9.17;;;4.20;99.90;;;;;;5022010;28;20965;-61
2023/04/21 02:26:11;;;;;;;14.87;8.10;;;4.20;99.90;;;;;;5023526;28;20438;-60
2023/04/21 02:28:37;;;;;;;9.93;6.30;;;4.20;99.90;;;;;;5024194;28;20183;-60
2023/04/21 02:31:02;;;;;;;7.73;5.30;;;4.20;99.90;;;;;;5022667;28;20237;-58
2023/04/21 02:33:28;;;;;;;10.07;6.00;;;4.20;99.90;;;;;;5030380;28;20250;-57
2023/04/21 02:35:54;;;;;;;9.67;5.83;;;4.20;99.90;;;;;;5022145;28;20221;-59
2023/04/21 02:38:19;;;;;;;13.90;7.37;;;4.10;99.90;;;;;;5026979;28;20422;-59
2023/04/21 02:40:45;;;;;;;8.47;5.40;;;4.10;99.90;;;;;;5027746;28;20195;-58
2023/04/21 02:43:13;;;;;;;11.33;7.30;;;4.10;99.90;;;;;;5031480;28;20171;-59
2023/04/21 02:45:38;;;;;;;10.23;6.43;;;4.00;99.90;;;;;;5060961;23;20230;-57
2023/04/21 02:48:04;;;;;;;8.70;5.73;;;4.00;99.90;;;;;;5049618;28;20509;-56
2023/04/21 02:50:30;;;;;;;7.57;5.60;;;4.00;99.90;;;;;;5045449;28;20184;-56
2023/04/21 02:52:55;;;;;;;7.77;6.00;;;4.00;99.90;;;;;;5040786;28;20175;-57
2023/04/21 02:55:21;;;;;;;9.73;5.30;;;4.00;99.90;;;;;;5040322;28;20812;-57
2023/04/21 02:57:47;;;;;;;9.20;5.20;;;3.90;99.90;;;;;;5042368;28;20167;-58
2023/04/21 03:00:14;;;;;;;17.00;7.67;;;3.90;99.90;;;;;;5038467;28;20175;-58
2023/04/21 03:02:39;;;;;;;13.80;7.90;;;3.90;99.90;;;;;;5040494;28;20810;-57
2023/04/21 03:05:05;;;;;;;8.07;5.57;;;3.80;99.90;;;;;;5042514;28;20464;-59
2023/04/21 03:07:31;;;;;;;7.87;5.07;;;3.80;99.90;;;;;;5039480;28;20190;-57
2023/04/21 03:09:57;;;;;;;7.13;5.00;;;3.80;99.90;;;;;;5045975;28;20171;-58
2023/04/21 03:12:22;;;;;;;9.60;5.67;;;3.80;99.90;;;;;;5042641;28;20202;-57
2023/04/21 03:14:48;;;;;;;15.90;7.13;;;3.70;99.90;;;;;;5046560;28;20801;-58
2023/04/21 03:17:13;;;;;;;14.73;7.80;;;3.70;99.90;;;;;;5046038;28;20178;-59
2023/04/21 03:19:39;;;;;;;8.93;5.67;;;3.70;99.90;;;;;;5045197;28;20179;-58
2023/04/21 03:22:05;;;;;;;8.40;5.57;;;3.70;99.90;;;;;;5040689;28;20183;-58
2023/04/21 03:24:31;;;;;;;14.27;6.53;;;3.70;99.90;;;;;;5045423;28;20270;-56
2023/04/21 03:26:57;;;;;;;11.63;7.10;;;3.70;99.90;;;;;;5045357;28;20483;-58
2023/04/21 03:29:22;;;;;;;15.53;7.37;;;3.70;99.90;;;;;;5043752;28;20699;-57
2023/04/21 03:31:48;;;;;;;13.50;5.50;;;3.70;99.90;;;;;;5044662;28;20664;-57
2023/04/21 03:34:13;;;;;;;9.50;5.40;;;3.60;99.90;;;;;;5045959;28;20538;-56
2023/04/21 03:36:39;;;;;;;8.47;5.17;;;3.60;99.90;;;;;;5045068;28;20239;-57
2023/04/21 03:39:05;;;;;;;7.23;4.77;;;3.60;99.90;;;;;;5045081;28;20655;-59
2023/04/21 03:41:32;;;;;;;11.03;5.03;;;3.60;99.90;;;;;;5045887;28;20190;-57
2023/04/21 03:43:58;;;;;;;10.70;5.77;;;3.60;99.90;;;;;;5044103;28;20432;-57
2023/04/21 03:46:24;;;;;;;14.37;6.83;;;3.60;99.90;;;;;;5043042;28;20461;-58
2023/04/21 03:48:50;;;;;;;26.10;6.73;;;3.60;99.90;;;;;;5045484;28;20171;-58
2023/04/21 03:51:15;;;;;;;20.37;8.03;;;3.60;99.90;;;;;;5043589;28;20998;-58
2023/04/21 03:53:41;;;;;;;19.47;7.43;;;3.60;99.90;;;;;;5025549;28;20193;-59
2023/04/21 03:56:07;;;;;;;22.13;8.30;;;3.60;99.90;;;;;;5045695;28;20195;-57
2023/04/21 03:58:34;;;;;;;23.83;8.90;;;3.60;99.90;;;;;;5041213;28;20183;-55
2023/04/21 04:00:59;;;;;;;29.17;7.03;;;3.60;99.90;;;;;;5040344;28;20533;-58
2023/04/21 04:03:25;;;;;;;29.07;6.20;;;3.50;99.90;;;;;;5043701;28;21297;-55
2023/04/21 04:05:51;;;;;;;10.77;5.57;;;3.50;99.90;;;;;;5041748;28;20729;-53
2023/04/21 04:08:16;;;;;;;28.07;6.60;;;3.50;99.90;;;;;;5037983;28;20217;-59
2023/04/21 04:10:42;;;;;;;12.43;5.43;;;3.50;99.90;;;;;;5037852;28;20867;-57
2023/04/21 04:13:07;;;;;;;27.47;6.20;;;3.50;99.90;;;;;;5045843;28;20590;-56
2023/04/21 04:15:33;;;;;;;8.10;5.67;;;3.50;99.90;;;;;;5040436;28;20274;-55
2023/04/21 04:17:59;;;;;;;26.70;6.70;;;3.40;99.90;;;;;;5041110;28;20236;-57
2023/04/21 04:20:24;;;;;;;19.47;5.13;;;3.40;99.90;;;;;;5032287;28;21513;-59
2023/04/21 04:22:50;;;;;;;15.63;4.97;;;3.40;99.90;;;;;;5039903;28;20184;-58
2023/04/21 04:25:16;;;;;;;15.33;5.47;;;3.40;99.90;;;;;;5035305;28;20458;-57
2023/04/21 04:27:45;;;;;;;15.37;5.50;;;3.40;99.90;;;;;;5043586;28;20616;-56
2023/04/21 04:30:12;;;;;;;26.07;6.00;;;3.40;99.90;;;;;;5037673;28;20180;-56
2023/04/21 04:32:38;;;;;;;11.30;6.03;;;3.40;99.90;;;;;;5041792;28;20460;-57
2023/04/21 04:35:05;;;;;;;15.10;5.20;;;3.30;99.90;;;;;;5033211;28;20445;-57
2023/04/21 04:37:33;;;;;;;15.53;5.63;;;3.30;99.90;;;;;;5026562;28;20449;-58
2023/04/21 04:39:59;;;;;;;21.00;6.90;;;3.30;99.90;;;;;;5033095;28;20483;-56
2023/04/21 04:42:24;;;;;;;19.20;6.63;;;3.30;99.90;;;;;;5041880;28;20449;-57
2023/04/21 04:44:53;;;;;;;11.20;6.20;;;3.30;99.90;;;;;;5040598;28;20536;-57
2023/04/21 04:47:19;;;;;;;8.80;5.80;;;3.30;99.90;;;;;;5035141;28;20315;-57
2023/04/21 04:49:44;;;;;;;23.20;6.00;;;3.30;99.90;;;;;;5036086;28;20444;-54
2023/04/21 04:52:10;;;;;;;13.73;5.33;;;3.30;99.90;;;;;;5034914;28;20634;-57
2023/04/21 04:54:35;;;;;;;13.50;5.90;;;3.30;99.90;;;;;;5030517;28;20203;-58
2023/04/21 04:57:02;;;;;;;10.27;4.40;;;3.30;99.90;;;;;;5038085;28;20206;-57
2023/04/21 04:59:29;;;;;;;10.70;5.17;;;3.30;99.90;;;;;;5037147;28;20175;-57
2023/04/21 05:01:55;;;;;;;7.70;4.40;;;3.20;99.90;;;;;;5029677;28;20433;-57
2023/04/21 05:04:20;;;;;;;29.87;5.90;;;3.20;99.90;;;;;;5021318;28;20448;-57
2023/04/21 05:06:46;;;;;;;14.57;5.47;;;3.20;99.90;;;;;;5038708;28;20179;-58
2023/04/21 05:09:11;;;;;;;28.63;6.10;;;3.20;99.90;;;;;;5038625;28;20202;-57
2023/04/21 05:11:37;;;;;;;33.47;6.53;;;3.20;99.90;;;;;;5039107;28;21071;-56
2023/04/21 05:14:03;;;;;;;13.30;4.97;;;3.20;99.90;;;;;;5037561;28;20682;-57
2023/04/21 05:16:28;;;;;;;15.27;5.80;;;3.20;99.90;;;;;;5035760;28;20199;-58
2023/04/21 05:18:54;;;;;;;22.77;7.03;;;3.20;99.90;;;;;;5044624;28;20686;-56
2023/04/21 05:21:27;;;;;;;21.70;5.23;;;3.20;99.90;;;;;;5034176;28;20183;-56
2023/04/21 05:23:56;;;;;;;48.83;6.57;;;3.30;99.90;;;;;;5042120;28;20232;-56
2023/04/21 05:26:22;;;;;;;15.07;5.00;;;3.20;99.90;;;;;;5041257;28;20475;-57
2023/04/21 05:28:48;;;;;;;18.37;6.27;;;3.20;99.90;;;;;;5041708;28;20460;-56
2023/04/21 05:31:13;;;;;;;22.70;6.70;;;3.30;99.90;;;;;;5037506;28;20511;-56
2023/04/21 05:33:39;;;;;;;23.67;5.77;;;3.30;99.90;;;;;;5026063;28;20178;-56
2023/04/21 05:36:09;;;;;;;30.60;6.10;;;3.30;99.90;;;;;;5040159;28;20743;-54
2023/04/21 05:38:35;;;;;;;38.20;7.13;;;3.30;99.90;;;;;;5041604;28;20195;-56
2023/04/21 05:41:01;;;;;;;13.30;5.67;;;3.30;99.90;;;;;;5042808;28;20414;-58
2023/04/21 05:43:27;;;;;;;46.50;8.30;;;3.30;99.90;;;;;;5038545;28;20988;-54
2023/04/21 05:45:53;;;;;;;11.53;5.63;;;3.30;99.90;;;;;;5043007;28;20551;-58
2023/04/21 05:48:18;;;;;;;30.87;7.43;;;3.30;99.90;;;;;;5045545;28;20171;-52
2023/04/21 05:50:44;;;;;;;92.97;8.50;;;3.30;99.90;;;;;;5040721;28;20167;-56
2023/04/21 05:53:10;;;;;;;53.33;8.53;;;3.30;99.90;;;;;;5034772;28;20178;-56
2023/04/21 05:55:36;;;;;;;114.50;11.40;;;3.30;99.90;;;;;;5042038;28;20198;-54
2023/04/21 05:58:02;;;;;;;16.17;7.10;;;3.40;99.90;;;;;;5046749;28;20167;-56
2023/04/21 06:00:28;;;;;;;14.40;7.20;;;3.40;99.90;;;;;;5033889;28;20451;-57
2023/04/21 06:02:54;;;;;;;56.97;8.97;;;3.40;99.90;;;;;;5043843;28;20441;-55
2023/04/21 06:05:20;;;;;;;24.87;8.20;;;3.40;99.90;;;;;;5036160;28;20241;-55
2023/04/21 06:07:45;;;;;;;91.90;10.23;;;3.50;99.90;;;;;;5035763;28;20857;-54
2023/04/21 06:10:13;;;;;;;61.37;11.80;;;3.50;99.90;;;;;;5034333;28;20183;-52
2023/04/21 06:12:38;;;;;;;43.27;9.53;;;3.50;99.90;;;;;;5042296;28;20207;-55
2023/04/21 06:15:05;;;;;;;48.97;9.37;;;3.50;99.90;;;;;;5027926;28;20511;-55
2023/04/21 06:17:31;;;;;;;95.60;11.00;;;3.60;99.90;;;;;;5042120;28;20175;-55
2023/04/21 06:19:56;;;;;;;64.40;10.20;;;3.60;99.90;;;;;;5046897;28;20473;-55
2023/04/21 06:22:22;;;;;;;42.90;9.70;;;3.60;99.90;;;;;;5043166;28;20172;-53
2023/04/21 06:24:48;;;;;;;28.30;9.77;;;3.60;99.90;;;;;;5041081;28;20830;-55
2023/04/21 06:27:14;;;;;;;34.67;9.90;;;3.70;99.90;;;;;;5042692;28;20453;-56
2023/04/21 06:29:41;;;;;;;38.40;9.60;;;3.70;99.90;;;;;;5038519;28;20199;-57
2023/04/21 06:32:07;;;;;;;28.67;9.33;;;3.80;99.90;;;;;;5036120;28;20271;-58
2023/04/21 06:34:33;;;;;;;27.03;10.07;;;3.80;99.90;;;;;;5035288;28;20432;-57
2023/04/21 06:36:59;;;;;;;23.73;9.93;;;3.90;99.90;;;;;;5040881;28;20967;-56
2023/04/21 06:39:24;;;;;;;23.87;9.03;;;3.90;99.90;;;;;;5045124;28;20433;-56
2023/04/21 06:41:50;;;;;;;19.97;8.87;;;4.00;99.90;;;;;;5040739;28;20203;-56
2023/04/21 06:44:16;;;;;;;23.23;9.20;;;4.00;99.90;;;;;;5047031;28;20265;-55
2023/04/21 06:46:41;;;;;;;43.23;11.97;;;4.10;99.90;;;;;;5036196;28;20186;-56
2023/04/21 06:49:08;;;;;;;58.00;17.20;;;4.10;99.90;;;;;;5043596;28;22394;-56
2023/04/21 06:51:33;;;;;;;65.63;18.57;;;4.20;99.90;;;;;;5040037;28;21033;-59
2023/04/21 06:54:00;;;;;;;49.20;17.53;;;4.30;99.90;;;;;;5044056;28;20441;-55
2023/04/21 06:56:26;;;;;;;46.40;17.90;;;4.40;99.90;;;;;;5045307;28;20687;-54
2023/04/21 06:58:52;;;;;;;47.30;17.40;;;4.50;99.90;;;;;;5041784;28;20438;-56
2023/04/21 07:01:17;;;;;;;41.20;15.70;;;4.60;99.90;;;;;;5037937;28;20468;-56
2023/04/21 07:03:43;;;;;;;48.13;15.90;;;4.70;99.90;;;;;;5041662;28;20305;-57
2023/04/21 07:06:09;;;;;;;52.70;17.30;;;4.80;99.90;;;;;;5045896;28;20207;-55
2023/04/21 07:08:35;;;;;;;45.13;16.90;;;5.00;99.90;;;;;;5044127;28;20429;-57
2023/04/21 07:11:01;;;;;;;41.77;14.57;;;5.10;99.90;;;;;;5042411;28;20844;-56
2023/04/21 07:13:27;;;;;;;46.10;14.90;;;5.10;99.90;;;;;;5025312;28;20186;-56
2023/04/21 07:15:52;;;;;;;46.83;15.50;;;5.30;99.90;;;;;;5034892;28;20282;-55
2023/04/21 07:18:18;;;;;;;49.43;17.27;;;5.40;99.90;;;;;;5048215;28;20194;-56
2023/04/21 07:20:44;;;;;;;61.37;20.03;;;5.60;99.90;;;;;;5038927;28;20175;-56
2023/04/21 07:23:09;;;;;;;74.67;22.50;;;5.70;99.90;;;;;;5040348;28;20203;-56
2023/04/21 07:25:35;;;;;;;52.20;21.93;;;5.90;99.90;;;;;;5038052;28;20206;-55
2023/04/21 07:28:02;;;;;;;66.57;22.80;;;6.00;99.90;;;;;;5038985;28;20199;-55
2023/04/21 07:30:28;;;;;;;58.07;22.17;;;6.00;99.90;;;;;;5037014;28;20194;-57
2023/04/21 07:32:54;;;;;;;46.97;19.10;;;6.20;99.90;;;;;;5041886;28;21116;-57
2023/04/21 07:35:20;;;;;;;42.13;14.13;;;6.30;99.90;;;;;;5040457;28;20525;-57
2023/04/21 07:37:46;;;;;;;26.43;11.53;;;6.40;99.90;;;;;;5039095;28;20421;-56
2023/04/21 07:40:11;;;;;;;17.93;9.50;;;6.60;99.90;;;;;;5038139;28;20186;-57
2023/04/21 07:42:37;;;;;;;13.23;7.00;;;6.70;99.90;;;;;;5043008;28;20480;-55
2023/04/21 07:45:04;;;;;;;17.33;8.40;;;6.80;99.90;;;;;;5044606;28;20226;-56
2023/04/21 07:47:30;;;;;;;13.47;7.90;;;6.90;99.90;;;;;;5024355;28;20187;-56
2023/04/21 07:49:56;;;;;;;12.20;7.63;;;7.10;99.90;;;;;;5048555;28;20408;-56
2023/04/21 07:52:22;;;;;;;19.03;7.00;;;7.20;99.90;;;;;;5042350;28;20469;-56
2023/04/21 07:54:47;;;;;;;11.37;6.10;;;7.30;99.90;;;;;;5042548;28;20231;-57
2023/04/21 07:57:13;;;;;;;8.53;5.60;;;7.50;99.90;;;;;;5043926;28;20460;-57
2023/04/21 07:59:38;;;;;;;7.53;5.30;;;7.60;99.90;;;;;;5047375;28;20179;-56
2023/04/21 08:02:04;;;;;;;5.90;4.70;;;7.80;99.90;;;;;;5042511;28;20576;-56
2023/04/21 08:04:30;;;;;;;6.90;5.13;;;7.90;99.90;;;;;;5042687;28;20183;-56
2023/04/21 08:06:56;;;;;;;6.07;4.57;;;8.00;99.90;;;;;;5041129;28;20299;-56
2023/04/21 08:09:21;;;;;;;8.73;5.50;;;8.20;99.90;;;;;;5037396;28;20183;-58
2023/04/21 08:11:47;;;;;;;5.70;4.97;;;8.30;99.90;;;;;;5036804;28;20207;-56
2023/04/21 08:14:13;;;;;;;8.13;5.80;;;8.50;99.90;;;;;;5032883;28;20195;-59
2023/04/21 08:16:40;;;;;;;7.67;5.00;;;8.50;99.90;;;;;;5032473;28;20219;-58
2023/04/21 08:19:07;;;;;;;7.90;5.63;;;8.60;99.90;;;;;;5034271;28;20190;-58
2023/04/21 08:21:32;;;;;;;7.80;5.47;;;8.70;99.90;;;;;;5032613;28;20839;-59
2023/04/21 08:23:58;;;;;;;7.33;4.70;;;8.70;99.90;;;;;;5032050;28;20452;-56
2023/04/21 08:26:24;;;;;;;7.27;5.30;;;8.80;99.90;;;;;;5038127;28;20207;-58
2023/04/21 08:28:51;;;;;;;7.77;5.00;;;8.80;99.90;;;;;;5032013;28;20316;-58
2023/04/21 08:31:18;;;;;;;7.60;5.20;;;8.90;99.90;;;;;;5035449;28;20450;-58
2023/04/21 08:33:44;;;;;;;7.20;5.47;;;9.00;99.90;;;;;;5033818;28;20516;-58
2023/04/21 08:36:10;;;;;;;12.03;5.40;;;9.20;99.90;;;;;;5036229;28;20449;-57
2023/04/21 08:38:36;;;;;;;6.70;5.20;;;9.30;99.90;;;;;;5031001;28;22494;-59
2023/04/21 08:41:03;;;;;;;7.20;5.17;;;9.50;99.90;;;;;;5038223;28;20175;-57
2023/04/21 08:43:29;;;;;;;6.30;5.70;;;9.60;99.90;;;;;;5036978;28;20464;-58
2023/04/21 08:45:55;;;;;;;5.77;4.67;;;9.70;99.90;;;;;;5033185;28;20626;-59
2023/04/21 08:48:22;;;;;;;5.67;3.70;;;9.80;99.90;;;;;;5030995;28;20668;-57
2023/04/21 08:50:50;;;;;;;3.90;3.50;;;9.90;99.90;;;;;;5035204;28;20610;-53
2023/04/21 08:53:19;;;;;;;4.43;3.43;;;10.10;99.90;;;;;;5036928;28;20441;-53
2023/04/21 08:55:50;;;;;;;5.03;3.03;;;10.30;99.90;;;;;;5032421;28;20481;-59
2023/04/21 08:58:16;;;;;;;4.53;2.73;;;10.40;99.90;;;;;;5033939;28;20905;-58
2023/04/21 09:00:41;;;;;;;4.23;3.43;;;10.50;99.90;;;;;;5025606;28;20430;-58
2023/04/21 09:03:07;;;;;;;3.70;2.83;;;10.60;99.90;;;;;;5036101;28;20183;-58
2023/04/21 09:05:33;;;;;;;2.43;2.23;;;10.80;99.90;;;;;;5037885;28;20191;-58
2023/04/21 09:08:11;;;;;;;2.93;2.10;;;10.90;99.90;;;;;;5035142;28;20261;-58
2023/04/21 09:10:44;;;;;;;1.70;1.60;;;11.00;99.90;;;;;;5036348;28;20616;-58
2023/04/21 09:13:10;;;;;;;2.50;2.30;;;11.10;99.90;;;;;;5036081;28;20440;-56
2023/04/21 09:15:43;;;;;;;2.50;2.30;;;11.20;99.90;;;;;;5033658;28;20481;-59
2023/04/21 09:18:22;;;;;;;2.73;2.53;;;11.30;99.90;;;;;;5037430;28;20437;-57
2023/04/21 09:20:50;;;;;;;4.70;3.20;;;11.40;99.90;;;;;;5035859;28;20429;-57
2023/04/21 09:23:17;;;;;;;2.70;2.50;;;11.50;99.90;;;;;;5031843;28;20548;-57
2023/04/21 09:25:44;;;;;;;2.50;2.30;;;11.60;99.90;;;;;;5030447;28;20467;-58
2023/04/21 09:28:11;;;;;;;2.43;2.10;;;11.70;99.90;;;;;;5033936;28;20465;-58
2023/04/21 09:30:38;;;;;;;2.90;2.60;;;11.80;99.90;;;;;;5039584;28;20435;-58
2023/04/21 09:33:04;;;;;;;2.00;1.90;;;12.00;99.90;;;;;;5041241;28;20474;-58
2023/04/21 09:35:38;;;;;;;5.80;2.60;;;12.10;99.90;;;;;;5039462;28;20441;-59
2023/04/21 09:38:10;;;;;;;2.70;2.07;;;12.20;99.90;;;;;;5043994;28;20968;-58
2023/04/21 09:40:36;;;;;;;3.80;3.17;;;12.30;99.90;;;;;;5037199;28;20441;-59
2023/04/21 09:43:01;;;;;;;3.77;3.20;;;12.40;99.90;;;;;;5041454;28;20437;-60
2023/04/21 09:45:28;;;;;;;4.80;3.60;;;12.50;99.90;;;;;;5042042;28;20296;-59
2023/04/21 09:47:59;;;;;;;3.20;2.90;;;12.70;99.90;;;;;;5071975;22;20215;-59
2023/04/21 09:50:25;;;;;;;3.30;2.97;;;12.80;99.90;;;;;;5058960;28;20424;-61
2023/04/21 09:52:52;;;;;;;3.10;2.70;;;12.90;99.90;;;;;;5060614;28;21245;-60
2023/04/21 09:55:23;;;;;;;3.07;2.70;;;13.10;99.90;;;;;;5063579;28;20972;-60
2023/04/21 09:57:51;;;;;;;7.60;2.37;;;13.30;99.90;;;;;;5052542;28;21307;-60
2023/04/21 10:00:17;;;;;;;2.40;2.20;;;13.40;99.90;;;;;;5037928;28;20436;-62
2023/04/21 10:02:53;;;;;;;3.10;2.20;;;13.50;98.90;;;;;;5040301;28;20421;-62
2023/04/21 10:05:19;;;;;;;2.77;2.20;;;13.50;95.80;;;;;;5033988;28;20429;-62
2023/04/21 10:07:46;;;;;;;3.60;2.77;;;13.50;86.30;;;;;;5038009;28;20468;-62
2023/04/21 10:10:23;;;;;;;3.23;2.40;;;13.50;86.20;;;;;;5038739;28;20877;-63
2023/04/21 10:12:50;;;;;;;2.30;2.10;;;13.50;89.20;;;;;;5037410;28;20472;-62
2023/04/21 10:15:32;;;;;;;2.83;2.50;;;13.50;91.70;;;;;;5031610;28;20433;-63
2023/04/21 10:18:37;;;;;;;3.40;3.10;;;13.60;93.20;;;;;;5038133;28;20477;-62
2023/04/21 10:21:08;;;;;;;4.17;3.77;;;13.70;92.80;;;;;;4994043;28;20435;-62
2023/04/21 10:23:43;;;;;;;5.57;3.33;;;13.80;91.00;;;;;;4995589;28;20429;-62
2023/04/21 10:26:19;;;;;;;3.73;2.80;;;13.90;91.10;;;;;;5013836;28;20433;-61
2023/04/21 10:28:46;;;;;;;4.13;3.10;;;14.00;89.50;;;;;;5035958;28;20459;-58
2023/04/21 10:31:22;;;;;;;3.20;2.73;;;14.10;85.80;;;;;;5032988;28;20540;-59
2023/04/21 10:34:12;;;;;;;4.63;4.00;;;14.20;85.30;;;;;;5036589;28;20506;-58
2023/04/21 10:36:55;;;;;;;5.60;3.20;;;14.40;82.60;;;;;;5029008;28;20440;-59
2023/04/21 10:39:37;;;;;;;3.10;2.80;;;14.40;71.00;;;;;;5034308;28;20441;-58
2023/04/21 10:42:14;;;;;;;4.13;3.20;;;14.40;81.90;;;;;;5034649;28;21068;-60
2023/04/21 10:44:44;;;;;;;3.57;3.23;;;14.60;93.30;;;;;;5039513;28;20437;-63
2023/04/21 10:47:10;;;;;;;3.40;3.10;;;14.80;91.80;;;;;;5038154;28;20481;-62
2023/04/21 10:49:39;;;;;;;4.20;3.27;;;14.90;91.40;;;;;;5040704;28;20437;-63
2023/04/21 10:52:05;;;;;;;4.53;3.47;;;15.00;85.20;;;;;;5042599;28;20199;-62
2023/04/21 10:54:46;;;;;;;4.87;3.33;;;15.10;75.30;;;;;;5038365;28;20443;-60
2023/04/21 10:57:12;;;;;;;3.83;2.93;;;15.10;64.00;;;;;;5035722;28;20201;-56
2023/04/21 10:59:38;;;;;;;3.50;3.10;;;15.20;75.50;;;;;;5033600;28;20484;-59
2023/04/21 11:02:06;;;;;;;4.90;3.57;;;15.20;79.40;;;;;;5037191;28;20481;-61
2023/04/21 11:04:32;;;;;;;3.60;3.23;;;15.30;63.60;;;;;;5038682;28;20480;-60
2023/04/21 11:07:03;;;;;;;5.90;3.90;;;15.30;68.50;;;;;;5037540;28;20895;-60
2023/04/21 11:09:29;;;;;;;4.43;3.30;;;15.40;73.70;;;;;;5038216;28;20178;-61
2023/04/21 11:12:06;;;;;;;3.53;3.23;;;15.50;76.20;;;;;;5043964;28;20454;-61
2023/04/21 11:14:32;;;;;;;11.73;2.90;;;15.70;78.60;;;;;;5029646;28;20186;-61
2023/04/21 11:16:58;;;;;;;73.93;6.17;;;15.80;74.20;;;;;;5042736;28;20449;-58
2023/04/21 11:19:24;;;;;;;3.80;3.40;;;15.80;71.80;;;;;;5037513;28;20465;-61
2023/04/21 11:21:53;;;;;;;27.30;4.30;;;16.00;71.70;;;;;;5039033;28;21531;-61
2023/04/21 11:24:20;;;;;;;40.97;4.97;;;16.20;67.20;;;;;;5042314;28;20434;-61
2023/04/21 11:26:46;;;;;;;36.07;4.20;;;16.40;67.00;;;;;;5034461;28;20440;-61
2023/04/21 11:29:13;;;;;;;3.63;3.13;;;16.50;67.70;;;;;;5036265;28;20453;-61
2023/04/21 11:31:41;;;;;;;3.53;3.20;;;16.60;64.60;;;;;;5039376;28;20464;-60
2023/04/21 11:34:07;;;;;;;3.90;2.90;;;16.70;62.50;;;;;;5043696;28;20433;-61
2023/04/21 11:36:37;;;;;;;7.63;3.07;;;16.70;66.20;;;;;;5038385;28;20950;-63
2023/04/21 11:39:07;;;;;;;3.10;2.80;;;16.80;62.50;;;;;;5037288;28;20445;-60
2023/04/21 11:41:33;;;;;;;4.50;3.40;;;16.90;63.10;;;;;;5037586;28;21182;-63
2023/04/21 11:43:58;;;;;;;3.73;2.60;;;16.90;65.80;;;;;;5037899;28;20440;-61
2023/04/21 11:46:26;;;;;;;3.03;2.80;;;17.00;65.60;;;;;;5043036;28;20433;-61
2023/04/21 11:49:05;;;;;;;3.50;3.20;;;17.20;67.10;;;;;;5038962;28;20223;-60
2023/04/21 11:51:38;;;;;;;2.93;2.53;;;17.50;68.10;;;;;;5045323;28;20536;-60
2023/04/21 11:54:07;;;;;;;4.80;2.60;;;17.70;67.80;;;;;;5035765;28;20547;-60
2023/04/21 11:56:37;;;;;;;2.60;2.40;;;17.80;65.10;;;;;;5042952;28;20442;-61
2023/04/21 11:59:14;;;;;;;3.63;2.83;;;17.90;62.40;;;;;;5044000;28;20450;-61
2023/04/21 12:01:53;;;;;;;2.97;2.77;;;18.10;62.50;;;;;;5037523;28;20437;-61
2023/04/21 12:04:23;;;;;;;3.03;2.73;;;18.30;62.50;;;;;;5042129;28;20437;-61
2023/04/21 12:07:00;;;;;;;2.40;2.20;;;18.40;62.30;;;;;;5050028;28;20521;-61
2023/04/21 12:09:28;;;;;;;2.77;1.80;;;18.60;62.40;;;;;;5045930;28;20525;-61
2023/04/21 12:11:56;;;;;;;8.13;1.87;;;18.80;62.80;;;;;;5035625;28;20470;-61
2023/04/21 12:14:23;;;;;;;2.60;2.10;;;19.00;60.10;;;;;;5035815;28;20470;-61
2023/04/21 12:16:52;;;;;;;2.77;2.20;;;19.10;56.90;;;;;;5036137;28;21547;-61
2023/04/21 12:19:22;;;;;;;3.60;2.50;;;19.10;55.20;;;;;;5038767;28;20448;-61
2023/04/21 12:21:57;;;;;;;2.07;1.93;;;19.10;55.20;;;;;;5033150;28;20438;-61
2023/04/21 12:24:23;;;;;;;1.80;1.60;;;19.30;56.60;;;;;;5047797;28;20473;-60
2023/04/21 12:26:49;;;;;;;1.73;1.53;;;19.40;55.60;;;;;;5036832;28;20461;-61
2023/04/21 12:29:14;;;;;;;1.80;1.50;;;19.60;55.60;;;;;;5035749;28;20245;-61
2023/04/21 12:31:40;;;;;;;1.80;1.30;;;19.70;53.20;;;;;;5034526;28;20203;-61
2023/04/21 12:34:06;;;;;;;1.80;1.17;;;19.70;51.10;;;;;;5033798;28;20260;-61
2023/04/21 12:36:31;;;;;;;1.03;0.93;;;19.50;52.00;;;;;;5039160;28;20213;-61
2023/04/21 12:38:57;;;;;;;1.30;1.20;;;19.60;52.60;;;;;;5036944;28;20191;-62
2023/04/21 12:41:23;;;;;;;1.33;1.23;;;19.70;51.50;;;;;;5034380;28;20246;-60
2023/04/21 12:43:48;;;;;;;1.37;1.00;;;19.80;49.20;;;;;;5037023;28;20182;-60
2023/04/21 12:46:14;;;;;;;1.40;1.10;;;19.70;50.40;;;;;;5035314;28;20429;-61
2023/04/21 12:48:40;;;;;;;3.33;1.20;;;19.70;51.70;;;;;;5034033;28;20206;-61